BGY weather

Il Caravaggio International Airport
Bergamo, Lombardy, Italy

Public forecast

Using degrees Celsius for public forecast. Weather courtesy of forecast.io.

METAR (pilot weather report)

Retrieved 2019/01/20 03:20 UTC (24 minutes ago):

LIME 200320Z 36003KT 9999 FEW070 M01/M02 Q1014 NOSIG

TAF (pilot weather forecast)

Forecast is more than 12 hours old.

Retrieved 2019/01/19 00:00 UTC (1 day ago):

TAF LIME 192300Z 2000/2024 VRB05KT 9999 SCT080